ETH28Y DTTA-HLLT
Flight info
| Callsign | ETH28Y |
|---|---|
| Flight time | N/A |
| Altitude | 39000 |
| Route | GIBLI3B GIBLI A411 MON UN157 GASRI GASRI1A |
| Aircraft | B772/H-SDE2E3FGHIJ5LORVWXY/LB1D1 |
Departure
| Time | 2026-04-30 08:03 |
|---|---|
| Airport | Tunis Carthage International Airport (DTTA) |
Arrival
| Time | N/A |
|---|---|
| Airport | HLLT |
| Time | Latitude | Longitude | Altitude | Speed | Heading |
|---|---|---|---|---|---|
| 2026-04-30 07:30 | 36.84524 | 10.21953 | 35 ft | 0 kts | 356° |
| 2026-04-30 07:52 | 36.84514 | 10.21953 | 35 ft | 4 kts | 358° |
| 2026-04-30 07:52 | 36.84488 | 10.21952 | 35 ft | 4 kts | 8° |
| 2026-04-30 07:52 | 36.84461 | 10.21945 | 35 ft | 4 kts | 24° |
| 2026-04-30 07:53 | 36.84441 | 10.21928 | 32 ft | 4 kts | 63° |
| 2026-04-30 07:53 | 36.84437 | 10.21914 | 34 ft | 0 kts | 92° |
| 2026-04-30 07:57 | 36.84436 | 10.21920 | 35 ft | 3 kts | 92° |
| 2026-04-30 07:57 | 36.84441 | 10.21980 | 35 ft | 8 kts | 72° |
| 2026-04-30 07:58 | 36.84467 | 10.22039 | 35 ft | 8 kts | 58° |
| 2026-04-30 07:58 | 36.84497 | 10.22095 | 35 ft | 8 kts | 65° |
| 2026-04-30 07:58 | 36.84499 | 10.22166 | 35 ft | 9 kts | 97° |
| 2026-04-30 07:58 | 36.84508 | 10.22242 | 35 ft | 9 kts | 57° |
| 2026-04-30 07:59 | 36.84565 | 10.22275 | 35 ft | 10 kts | 10° |
| 2026-04-30 07:59 | 36.84634 | 10.22290 | 35 ft | 10 kts | 8° |
| 2026-04-30 07:59 | 36.84705 | 10.22310 | 35 ft | 12 kts | 13° |
| 2026-04-30 08:00 | 36.84943 | 10.22378 | 35 ft | 23 kts | 13° |
| 2026-04-30 08:00 | 36.85112 | 10.22426 | 38 ft | 27 kts | 13° |
| 2026-04-30 08:00 | 36.85301 | 10.22477 | 37 ft | 31 kts | 11° |
| 2026-04-30 08:00 | 36.85524 | 10.22535 | 35 ft | 33 kts | 12° |
| 2026-04-30 08:01 | 36.85745 | 10.22594 | 34 ft | 32 kts | 12° |
| 2026-04-30 08:01 | 36.85956 | 10.22649 | 35 ft | 30 kts | 12° |
| 2026-04-30 08:01 | 36.86161 | 10.22701 | 35 ft | 30 kts | 12° |
| 2026-04-30 08:01 | 36.86364 | 10.22760 | 35 ft | 30 kts | 13° |
| 2026-04-30 08:02 | 36.86734 | 10.22875 | 35 ft | 18 kts | 28° |
| 2026-04-30 08:02 | 36.86774 | 10.23013 | 35 ft | 18 kts | 108° |
| 2026-04-30 08:03 | 36.86554 | 10.23093 | 36 ft | 18 kts | 192° |
| 2026-04-30 08:03 | 36.85410 | 10.22765 | 39 ft | 166 kts | 195° |
| 2026-04-30 08:03 | 36.84153 | 10.22429 | 647 ft | 187 kts | 190° |
| 2026-04-30 08:04 | 36.82911 | 10.22329 | 1844 ft | 179 kts | 170° |
| 2026-04-30 08:04 | 36.81726 | 10.22991 | 2349 ft | 200 kts | 143° |
| 2026-04-30 08:04 | 36.80816 | 10.24422 | 2540 ft | 225 kts | 106° |
| 2026-04-30 08:04 | 36.80492 | 10.26393 | 2717 ft | 242 kts | 107° |
| 2026-04-30 08:05 | 36.79451 | 10.28135 | 3149 ft | 266 kts | 147° |
| 2026-04-30 08:05 | 36.77687 | 10.28829 | 3937 ft | 269 kts | 176° |
| 2026-04-30 08:05 | 36.75817 | 10.29044 | 4693 ft | 277 kts | 175° |
| 2026-04-30 08:05 | 36.73903 | 10.29430 | 5674 ft | 280 kts | 171° |
| 2026-04-30 08:06 | 36.71997 | 10.29973 | 6663 ft | 281 kts | 168° |
| 2026-04-30 08:06 | 36.70091 | 10.30634 | 7538 ft | 286 kts | 166° |
| 2026-04-30 08:06 | 36.68173 | 10.31383 | 8374 ft | 291 kts | 164° |
| 2026-04-30 08:06 | 36.66240 | 10.32198 | 9228 ft | 296 kts | 163° |
| 2026-04-30 08:07 | 36.64288 | 10.33062 | 10030 ft | 299 kts | 163° |
| 2026-04-30 08:07 | 36.62287 | 10.33970 | 10515 ft | 316 kts | 163° |
| 2026-04-30 08:07 | 36.60152 | 10.34955 | 10850 ft | 336 kts | 162° |
| 2026-04-30 08:07 | 36.57957 | 10.35972 | 11500 ft | 345 kts | 162° |
| 2026-04-30 08:08 | 36.55694 | 10.37035 | 12421 ft | 351 kts | 162° |
| 2026-04-30 08:08 | 36.53390 | 10.38126 | 13502 ft | 356 kts | 162° |
| 2026-04-30 08:08 | 36.51054 | 10.39233 | 14471 ft | 362 kts | 162° |
| 2026-04-30 08:08 | 36.48674 | 10.40357 | 15374 ft | 369 kts | 162° |
| 2026-04-30 08:09 | 36.46240 | 10.41507 | 16264 ft | 376 kts | 162° |
| 2026-04-30 08:09 | 36.43802 | 10.42656 | 17154 ft | 382 kts | 162° |
| 2026-04-30 08:09 | 36.41293 | 10.43836 | 18048 ft | 389 kts | 162° |
| 2026-04-30 08:09 | 36.38742 | 10.45034 | 18846 ft | 395 kts | 162° |
| 2026-04-30 08:10 | 36.36161 | 10.46268 | 19618 ft | 401 kts | 161° |
| 2026-04-30 08:10 | 36.33543 | 10.47544 | 20394 ft | 406 kts | 161° |
| 2026-04-30 08:10 | 36.30902 | 10.48831 | 21133 ft | 411 kts | 161° |
| 2026-04-30 08:10 | 36.28219 | 10.50132 | 21840 ft | 417 kts | 162° |
| 2026-04-30 08:11 | 36.25489 | 10.51422 | 22572 ft | 422 kts | 162° |
| 2026-04-30 08:11 | 36.22719 | 10.52710 | 23290 ft | 428 kts | 162° |
| 2026-04-30 08:11 | 36.19912 | 10.54016 | 23937 ft | 433 kts | 162° |
| 2026-04-30 08:11 | 36.17076 | 10.55345 | 24567 ft | 437 kts | 162° |
| 2026-04-30 08:12 | 36.14258 | 10.56670 | 25221 ft | 440 kts | 163° |
| 2026-04-30 08:12 | 36.11384 | 10.58021 | 25918 ft | 443 kts | 163° |
| 2026-04-30 08:12 | 36.08486 | 10.59383 | 26568 ft | 447 kts | 163° |
| 2026-04-30 08:12 | 36.05571 | 10.60751 | 27220 ft | 451 kts | 163° |
| 2026-04-30 08:13 | 36.02618 | 10.62135 | 27827 ft | 455 kts | 164° |
| 2026-04-30 08:13 | 35.99646 | 10.63526 | 28491 ft | 459 kts | 164° |
| 2026-04-30 08:13 | 35.96649 | 10.64929 | 29152 ft | 463 kts | 164° |
| 2026-04-30 08:13 | 35.93624 | 10.66343 | 29788 ft | 467 kts | 164° |
| 2026-04-30 08:14 | 35.90575 | 10.67768 | 30379 ft | 470 kts | 165° |
| 2026-04-30 08:14 | 35.87505 | 10.69202 | 30942 ft | 473 kts | 165° |
| 2026-04-30 08:14 | 35.84413 | 10.70645 | 31479 ft | 476 kts | 165° |
| 2026-04-30 08:14 | 35.81302 | 10.72096 | 31991 ft | 479 kts | 165° |
| 2026-04-30 08:15 | 35.78173 | 10.73553 | 32485 ft | 483 kts | 165° |
| 2026-04-30 08:15 | 35.75022 | 10.75018 | 32953 ft | 486 kts | 165° |
| 2026-04-30 08:15 | 35.71838 | 10.76423 | 33452 ft | 487 kts | 166° |
| 2026-04-30 08:15 | 35.68615 | 10.77768 | 33966 ft | 489 kts | 166° |
| 2026-04-30 08:16 | 35.65376 | 10.79094 | 34375 ft | 492 kts | 167° |
| 2026-04-30 08:16 | 35.62127 | 10.80429 | 34898 ft | 491 kts | 167° |
| 2026-04-30 08:16 | 35.58899 | 10.81768 | 35504 ft | 488 kts | 167° |
| 2026-04-30 08:16 | 35.55728 | 10.83093 | 36127 ft | 485 kts | 167° |
| 2026-04-30 08:17 | 35.52543 | 10.84428 | 36757 ft | 482 kts | 167° |
| 2026-04-30 08:17 | 35.49378 | 10.85754 | 37320 ft | 480 kts | 167° |
| 2026-04-30 08:17 | 35.46225 | 10.87072 | 37865 ft | 479 kts | 167° |
| 2026-04-30 08:17 | 35.43077 | 10.88386 | 38397 ft | 477 kts | 168° |
| 2026-04-30 08:18 | 35.39935 | 10.89703 | 38878 ft | 475 kts | 168° |
| 2026-04-30 08:18 | 35.36801 | 10.91018 | 39067 ft | 480 kts | 168° |
| 2026-04-30 08:18 | 35.33615 | 10.92353 | 39049 ft | 484 kts | 167° |
| 2026-04-30 08:19 | 35.27299 | 10.95010 | 39033 ft | 475 kts | 168° |
| 2026-04-30 08:19 | 35.21038 | 10.97635 | 39033 ft | 476 kts | 168° |
| 2026-04-30 08:20 | 35.14741 | 11.00263 | 39051 ft | 478 kts | 168° |
| 2026-04-30 08:20 | 35.08462 | 11.02882 | 39050 ft | 480 kts | 168° |
| 2026-04-30 08:21 | 35.02132 | 11.05521 | 39043 ft | 481 kts | 168° |
| 2026-04-30 08:21 | 34.95807 | 11.08155 | 39029 ft | 479 kts | 168° |
| 2026-04-30 08:22 | 34.89511 | 11.10771 | 39033 ft | 477 kts | 168° |
| 2026-04-30 08:22 | 34.83218 | 11.13367 | 39035 ft | 476 kts | 168° |
| 2026-04-30 08:23 | 34.76934 | 11.15948 | 39042 ft | 476 kts | 168° |
| 2026-04-30 08:23 | 34.70646 | 11.18527 | 39028 ft | 477 kts | 168° |
| 2026-04-30 08:24 | 34.64363 | 11.21103 | 39034 ft | 477 kts | 168° |
| 2026-04-30 08:24 | 34.58070 | 11.23679 | 39039 ft | 478 kts | 168° |
| 2026-04-30 08:25 | 34.51801 | 11.26242 | 39042 ft | 478 kts | 168° |
| 2026-04-30 08:25 | 34.45491 | 11.28817 | 39018 ft | 478 kts | 168° |
| 2026-04-30 08:26 | 34.39180 | 11.31390 | 39030 ft | 479 kts | 168° |
| 2026-04-30 08:26 | 34.32890 | 11.33958 | 38836 ft | 470 kts | 168° |
| 2026-04-30 08:26 | 34.29797 | 11.35229 | 38220 ft | 469 kts | 168° |
| 2026-04-30 08:27 | 34.26712 | 11.36493 | 37548 ft | 469 kts | 168° |
| 2026-04-30 08:27 | 34.23625 | 11.37757 | 36994 ft | 466 kts | 167° |
| 2026-04-30 08:27 | 34.20560 | 11.39012 | 36524 ft | 462 kts | 167° |
| 2026-04-30 08:27 | 34.17576 | 11.40234 | 36100 ft | 457 kts | 167° |
| 2026-04-30 08:28 | 34.14583 | 11.41458 | 35675 ft | 452 kts | 167° |
| 2026-04-30 08:28 | 34.11612 | 11.42670 | 35249 ft | 448 kts | 167° |
| 2026-04-30 08:28 | 34.08662 | 11.43873 | 34802 ft | 445 kts | 167° |
| 2026-04-30 08:28 | 34.05733 | 11.45066 | 34381 ft | 441 kts | 167° |
| 2026-04-30 08:29 | 34.02839 | 11.46244 | 33940 ft | 438 kts | 167° |
| 2026-04-30 08:29 | 33.99965 | 11.47413 | 33461 ft | 434 kts | 167° |
| 2026-04-30 08:29 | 33.97112 | 11.48574 | 32969 ft | 431 kts | 167° |
| 2026-04-30 08:29 | 33.94286 | 11.49762 | 32491 ft | 430 kts | 162° |
| 2026-04-30 08:30 | 33.91692 | 11.51593 | 31898 ft | 434 kts | 145° |
| 2026-04-30 08:30 | 33.89381 | 11.53948 | 31352 ft | 435 kts | 143° |
| 2026-04-30 08:30 | 33.87095 | 11.56336 | 30850 ft | 434 kts | 143° |
| 2026-04-30 08:30 | 33.84818 | 11.58711 | 30430 ft | 431 kts | 143° |
| 2026-04-30 08:31 | 33.82557 | 11.61046 | 30029 ft | 428 kts | 143° |
| 2026-04-30 08:31 | 33.80297 | 11.63355 | 29585 ft | 424 kts | 143° |
| 2026-04-30 08:31 | 33.78053 | 11.65628 | 29122 ft | 421 kts | 143° |
| 2026-04-30 08:31 | 33.75815 | 11.67882 | 28675 ft | 418 kts | 144° |
| 2026-04-30 08:32 | 33.73583 | 11.70121 | 28166 ft | 418 kts | 144° |
| 2026-04-30 08:32 | 33.71351 | 11.72355 | 27657 ft | 417 kts | 143° |
| 2026-04-30 08:32 | 33.69130 | 11.74577 | 27237 ft | 414 kts | 143° |
| 2026-04-30 08:32 | 33.66925 | 11.76781 | 26836 ft | 411 kts | 143° |
| 2026-04-30 08:33 | 33.64736 | 11.78969 | 26421 ft | 408 kts | 143° |
| 2026-04-30 08:33 | 33.62559 | 11.81144 | 26051 ft | 405 kts | 143° |
| 2026-04-30 08:33 | 33.60423 | 11.83276 | 25666 ft | 402 kts | 143° |
| 2026-04-30 08:33 | 33.58277 | 11.85418 | 25304 ft | 400 kts | 143° |
| 2026-04-30 08:34 | 33.56144 | 11.87544 | 24928 ft | 397 kts | 143° |
| 2026-04-30 08:34 | 33.54024 | 11.89656 | 24553 ft | 395 kts | 143° |
| 2026-04-30 08:34 | 33.51917 | 11.91754 | 24180 ft | 393 kts | 143° |
| 2026-04-30 08:34 | 33.49820 | 11.93840 | 23805 ft | 391 kts | 143° |
| 2026-04-30 08:35 | 33.47733 | 11.95915 | 23413 ft | 389 kts | 143° |
| 2026-04-30 08:35 | 33.45656 | 11.97978 | 22994 ft | 386 kts | 143° |
| 2026-04-30 08:35 | 33.43589 | 12.00031 | 22609 ft | 383 kts | 143° |
| 2026-04-30 08:35 | 33.41567 | 12.02039 | 22235 ft | 380 kts | 143° |
| 2026-04-30 08:36 | 33.39535 | 12.04055 | 21864 ft | 377 kts | 143° |
| 2026-04-30 08:36 | 33.37522 | 12.06051 | 21512 ft | 375 kts | 143° |
| 2026-04-30 08:36 | 33.35521 | 12.08033 | 21110 ft | 372 kts | 144° |
| 2026-04-30 08:36 | 33.33532 | 12.10003 | 20751 ft | 370 kts | 144° |
| 2026-04-30 08:37 | 33.31555 | 12.11958 | 20392 ft | 368 kts | 144° |
| 2026-04-30 08:37 | 33.29591 | 12.13900 | 20037 ft | 366 kts | 144° |
| 2026-04-30 08:37 | 33.27633 | 12.15834 | 19653 ft | 364 kts | 144° |
| 2026-04-30 08:37 | 33.25679 | 12.17765 | 19295 ft | 363 kts | 144° |
| 2026-04-30 08:38 | 33.23735 | 12.19683 | 18922 ft | 362 kts | 144° |
| 2026-04-30 08:38 | 33.21798 | 12.21593 | 18565 ft | 360 kts | 144° |
| 2026-04-30 08:38 | 33.19866 | 12.23497 | 18162 ft | 360 kts | 144° |
| 2026-04-30 08:38 | 33.17940 | 12.25394 | 17747 ft | 358 kts | 144° |
| 2026-04-30 08:39 | 33.16022 | 12.27283 | 17356 ft | 356 kts | 144° |
| 2026-04-30 08:39 | 33.14115 | 12.29161 | 16976 ft | 354 kts | 144° |
| 2026-04-30 08:39 | 33.12217 | 12.31027 | 16600 ft | 352 kts | 144° |
| 2026-04-30 08:39 | 33.10337 | 12.32875 | 16230 ft | 349 kts | 144° |
| 2026-04-30 08:40 | 33.08490 | 12.34690 | 15864 ft | 347 kts | 144° |
| 2026-04-30 08:40 | 33.06629 | 12.36518 | 15484 ft | 345 kts | 144° |
| 2026-04-30 08:40 | 33.04777 | 12.38336 | 15118 ft | 343 kts | 144° |
| 2026-04-30 08:40 | 33.02944 | 12.40132 | 14749 ft | 340 kts | 144° |
| 2026-04-30 08:41 | 33.01120 | 12.41920 | 14398 ft | 338 kts | 144° |
| 2026-04-30 08:41 | 32.99310 | 12.43694 | 14050 ft | 336 kts | 144° |
| 2026-04-30 08:41 | 32.97508 | 12.45459 | 13665 ft | 334 kts | 144° |
| 2026-04-30 08:41 | 32.95720 | 12.47208 | 13279 ft | 331 kts | 144° |
| 2026-04-30 08:42 | 32.94541 | 12.48362 | 13032 ft | 330 kts | 143° |
| 2026-04-30 08:42 | 32.92202 | 12.50649 | 12564 ft | 327 kts | 143° |
| 2026-04-30 08:42 | 32.90448 | 12.52363 | 12216 ft | 325 kts | 143° |
| 2026-04-30 08:42 | 32.88703 | 12.54067 | 11872 ft | 323 kts | 143° |
| 2026-04-30 08:43 | 32.86971 | 12.55758 | 11529 ft | 322 kts | 143° |
| 2026-04-30 08:43 | 32.85247 | 12.57441 | 11190 ft | 320 kts | 143° |
| 2026-04-30 08:43 | 32.83529 | 12.59116 | 10852 ft | 318 kts | 143° |
| 2026-04-30 08:43 | 32.82395 | 12.60221 | 10617 ft | 318 kts | 143° |
| 2026-04-30 08:44 | 32.80691 | 12.61881 | 10286 ft | 316 kts | 143° |
| 2026-04-30 08:44 | 32.79008 | 12.63520 | 10140 ft | 308 kts | 143° |
| 2026-04-30 08:44 | 32.77482 | 12.65230 | 9869 ft | 300 kts | 128° |
| 2026-04-30 08:44 | 32.76402 | 12.67345 | 9583 ft | 299 kts | 120° |
| 2026-04-30 08:45 | 32.75388 | 12.69497 | 9286 ft | 298 kts | 121° |
| 2026-04-30 08:45 | 32.74367 | 12.71626 | 8970 ft | 296 kts | 121° |
| 2026-04-30 08:45 | 32.73334 | 12.73752 | 8681 ft | 295 kts | 122° |
| 2026-04-30 08:45 | 32.72304 | 12.75855 | 8387 ft | 294 kts | 122° |
| 2026-04-30 08:46 | 32.71273 | 12.77950 | 8101 ft | 293 kts | 122° |
| 2026-04-30 08:46 | 32.70255 | 12.80012 | 7800 ft | 292 kts | 122° |
| 2026-04-30 08:46 | 32.69229 | 12.82086 | 7518 ft | 291 kts | 122° |
| 2026-04-30 08:46 | 32.68203 | 12.84156 | 7233 ft | 290 kts | 122° |
| 2026-04-30 08:47 | 32.67176 | 12.86223 | 6934 ft | 289 kts | 122° |
| 2026-04-30 08:47 | 32.66168 | 12.88280 | 6650 ft | 285 kts | 118° |
| 2026-04-30 08:47 | 32.65664 | 12.90509 | 6344 ft | 279 kts | 91° |
| 2026-04-30 08:47 | 32.65737 | 12.92754 | 6081 ft | 274 kts | 88° |
| 2026-04-30 08:48 | 32.65790 | 12.95008 | 5853 ft | 272 kts | 89° |
| 2026-04-30 08:48 | 32.65848 | 12.97229 | 5721 ft | 265 kts | 87° |
| 2026-04-30 08:48 | 32.65950 | 12.99394 | 5597 ft | 259 kts | 86° |
| 2026-04-30 08:48 | 32.66051 | 13.01511 | 5398 ft | 257 kts | 86° |
| 2026-04-30 08:49 | 32.66100 | 13.03647 | 5075 ft | 260 kts | 90° |
| 2026-04-30 08:49 | 32.66096 | 13.05808 | 4790 ft | 262 kts | 90° |
| 2026-04-30 08:49 | 32.66097 | 13.07960 | 4682 ft | 261 kts | 89° |
| 2026-04-30 08:49 | 32.66101 | 13.10177 | 4713 ft | 292 kts | 89° |
| 2026-04-30 08:50 | 32.66071 | 13.12744 | 4736 ft | 326 kts | 97° |
| 2026-04-30 08:50 | 32.65323 | 13.15316 | 4726 ft | 321 kts | 124° |
| 2026-04-30 08:50 | 32.63800 | 13.16936 | 4682 ft | 276 kts | 159° |
| 2026-04-30 08:50 | 32.62040 | 13.17192 | 4656 ft | 248 kts | 196° |
| 2026-04-30 08:51 | 32.60662 | 13.16191 | 4642 ft | 225 kts | 236° |
| 2026-04-30 08:51 | 32.59780 | 13.14688 | 4637 ft | 222 kts | 222° |
| 2026-04-30 08:51 | 32.58341 | 13.14045 | 4628 ft | 231 kts | 179° |
| 2026-04-30 08:51 | 32.56764 | 13.14395 | 4662 ft | 230 kts | 172° |
| 2026-04-30 08:52 | 32.55149 | 13.14508 | 4682 ft | 234 kts | 184° |
| 2026-04-30 08:52 | 32.53518 | 13.14463 | 4676 ft | 235 kts | 183° |
| 2026-04-30 08:52 | 32.51877 | 13.14416 | 4587 ft | 235 kts | 184° |
| 2026-04-30 08:52 | 32.50270 | 13.14340 | 4604 ft | 227 kts | 184° |
| 2026-04-30 08:53 | 32.48688 | 13.14275 | 4640 ft | 230 kts | 177° |
| 2026-04-30 08:53 | 32.47169 | 13.14897 | 4438 ft | 238 kts | 144° |
| 2026-04-30 08:53 | 32.46185 | 13.16474 | 4165 ft | 243 kts | 109° |
| 2026-04-30 08:53 | 32.46086 | 13.18431 | 3885 ft | 239 kts | 75° |
| 2026-04-30 08:54 | 32.46899 | 13.20042 | 3635 ft | 228 kts | 39° |
| 2026-04-30 08:54 | 32.48294 | 13.20785 | 3431 ft | 217 kts | 4° |
| 2026-04-30 08:54 | 32.49758 | 13.20775 | 3327 ft | 204 kts | 356° |
| 2026-04-30 08:54 | 32.51102 | 13.20454 | 3129 ft | 194 kts | 340° |
| 2026-04-30 08:55 | 32.52358 | 13.19951 | 2942 ft | 188 kts | 342° |
| 2026-04-30 08:55 | 32.53596 | 13.19512 | 2705 ft | 184 kts | 344° |
| 2026-04-30 08:55 | 32.54792 | 13.19113 | 2495 ft | 178 kts | 345° |
| 2026-04-30 08:55 | 32.55987 | 13.18716 | 2273 ft | 177 kts | 345° |
| 2026-04-30 08:56 | 32.57171 | 13.18338 | 2016 ft | 176 kts | 345° |
| 2026-04-30 08:56 | 32.58358 | 13.17982 | 1782 ft | 173 kts | 346° |
| 2026-04-30 08:56 | 32.59470 | 13.17672 | 1521 ft | 155 kts | 346° |
| 2026-04-30 08:56 | 32.60429 | 13.17391 | 1252 ft | 135 kts | 343° |
| 2026-04-30 08:57 | 32.61321 | 13.17079 | 1135 ft | 134 kts | 339° |
| 2026-04-30 08:57 | 32.62180 | 13.16639 | 1062 ft | 133 kts | 335° |
| 2026-04-30 08:57 | 32.63040 | 13.16272 | 921 ft | 130 kts | 342° |
| 2026-04-30 08:57 | 32.63932 | 13.16078 | 727 ft | 129 kts | 351° |
| 2026-04-30 08:58 | 32.64837 | 13.16005 | 539 ft | 131 kts | 356° |
| 2026-04-30 08:58 | 32.65741 | 13.15959 | 352 ft | 131 kts | 356° |
| 2026-04-30 08:58 | 32.66579 | 13.15904 | 285 ft | 108 kts | 357° |
| 2026-04-30 08:58 | 32.67204 | 13.15866 | 286 ft | 72 kts | 357° |
| 2026-04-30 08:59 | 32.67538 | 13.15848 | 292 ft | 36 kts | 357° |
| 2026-04-30 08:59 | 32.67778 | 13.15831 | 291 ft | 32 kts | 356° |
| 2026-04-30 08:59 | 32.67900 | 13.15841 | 289 ft | 15 kts | 1° |
| 2026-04-30 08:59 | 32.67943 | 13.15832 | 286 ft | 0 kts | 291° |
| 2026-04-30 09:00 | 32.67928 | 13.15827 | 279 ft | 5 kts | 182° |
| 2026-04-30 09:00 | 32.67887 | 13.15828 | 290 ft | 10 kts | 179° |
| 2026-04-30 09:00 | 32.67766 | 13.15832 | 291 ft | 24 kts | 178° |
| 2026-04-30 09:00 | 32.67559 | 13.15854 | 288 ft | 35 kts | 174° |
| 2026-04-30 09:01 | 32.67300 | 13.15865 | 286 ft | 37 kts | 178° |
| 2026-04-30 09:01 | 32.67047 | 13.15877 | 285 ft | 36 kts | 176° |
| 2026-04-30 09:01 | 32.66804 | 13.15892 | 284 ft | 34 kts | 177° |
| 2026-04-30 09:01 | 32.66617 | 13.15896 | 285 ft | 12 kts | 200° |
| 2026-04-30 09:02 | 32.66595 | 13.15696 | 299 ft | 13 kts | 271° |
| 2026-04-30 09:02 | 32.66597 | 13.15535 | 299 ft | 21 kts | 271° |
| 2026-04-30 09:02 | 32.66592 | 13.15373 | 300 ft | 20 kts | 266° |
| 2026-04-30 09:03 | 32.66589 | 13.15210 | 299 ft | 20 kts | 269° |
| 2026-04-30 09:03 | 32.66587 | 13.15046 | 299 ft | 20 kts | 269° |
| 2026-04-30 09:03 | 32.66585 | 13.14883 | 297 ft | 20 kts | 269° |
| 2026-04-30 09:03 | 32.66583 | 13.14720 | 297 ft | 20 kts | 269° |
| 2026-04-30 09:04 | 32.66583 | 13.14572 | 298 ft | 14 kts | 275° |
| 2026-04-30 09:04 | 32.66605 | 13.14504 | 299 ft | 4 kts | 335° |
| 2026-04-30 09:04 | 32.66635 | 13.14503 | 300 ft | 4 kts | 0° |
| 2026-04-30 09:04 | 32.66665 | 13.14503 | 298 ft | 4 kts | 359° |
| 2026-04-30 09:05 | 32.66673 | 13.14503 | 297 ft | 0 kts | 359° |